Time;durP1;ratioP1;P1;durP2;ratioP2;P2;SDS_P1;SDS_P2;PMS_P1;PMS_P2;Temp;Humidity;BMP_temperature;BMP_pressure;BME280_temperature;BME280_humidity;BME280_pressure;Samples;Min_cycle;Max_cycle;Signal;HPM_P1;HPM_P2
2023/10/17 00:02:49;;;;;;;7.35;5.63;;;;;;;7.46;100.00;101940.56;5030203;28;20038;-53
2023/10/17 00:05:15;;;;;;;10.00;5.07;;;;;;;7.59;100.00;101956.25;5047113;28;20507;-49
2023/10/17 00:07:45;;;;;;;13.38;5.20;;;;;;;7.84;100.00;102012.97;5031560;28;20061;-52
2023/10/17 00:10:15;;;;;;;7.53;4.93;;;;;;;7.27;100.00;101931.84;5030278;28;20042;-49
2023/10/17 00:12:44;;;;;;;8.98;4.95;;;;;;;7.65;100.00;101977.19;5031930;28;20466;-49
2023/10/17 00:15:24;;;;;;;6.72;4.90;;;;;;;7.38;100.00;101928.34;5032117;28;20038;-55
2023/10/17 00:17:49;;;;;;;6.70;5.17;;;;;;;7.38;100.00;101926.63;5058162;28;20041;-48
2023/10/17 00:20:17;;;;;;;7.65;4.90;;;;;;;7.65;100.00;101992.03;5031847;28;20284;-51
2023/10/17 00:22:42;;;;;;;7.85;4.47;;;;;;;7.70;100.00;102000.78;5031614;28;20033;-52
2023/10/17 00:25:11;;;;;;;10.50;4.93;;;;;;;7.30;100.00;101924.88;5031787;28;20120;-51
2023/10/17 00:27:37;;;;;;;8.88;4.70;;;;;;;7.70;100.00;101992.94;5031681;28;20033;-49
2023/10/17 00:30:03;;;;;;;6.18;4.40;;;;;;;7.69;100.00;101992.03;5031469;28;20087;-49
2023/10/17 00:32:31;;;;;;;11.45;4.70;;;;;;;7.64;100.00;101979.84;5031181;28;20493;-50
2023/10/17 00:34:56;;;;;;;8.50;4.20;;;;;;;7.32;100.00;101917.03;5029891;28;20025;-46
2023/10/17 00:37:30;;;;;;;7.45;4.97;;;;;;;7.56;100.00;101963.25;5030205;28;20037;-49
2023/10/17 00:39:56;;;;;;;6.13;4.35;;;;;;;7.28;100.00;101916.16;5045646;28;20037;-49
2023/10/17 00:42:28;;;;;;;10.95;4.80;;;;;;;7.28;100.00;101910.03;5033682;28;20087;-50
2023/10/17 00:44:54;;;;;;;9.23;4.35;;;;;;;7.69;100.00;101967.59;5034998;28;20424;-48
2023/10/17 00:47:19;;;;;;;7.43;4.50;;;;;;;7.68;100.00;101971.06;5035025;28;20048;-49
2023/10/17 00:49:45;;;;;;;9.23;4.55;;;;;;;7.66;100.00;101985.94;5035053;28;20060;-49
2023/10/17 00:52:24;;;;;;;7.28;4.75;;;;;;;7.31;100.00;101908.28;5033407;28;20501;-49
2023/10/17 00:54:51;;;;;;;6.57;4.68;;;;;;;7.68;100.00;101984.16;5033741;28;20026;-50
2023/10/17 00:57:17;;;;;;;9.10;5.13;;;;;;;7.68;100.00;101973.69;5034707;28;20116;-51
2023/10/17 00:59:50;;;;;;;8.07;4.65;;;;;;;7.71;100.00;101964.06;5033467;28;20068;-52
2023/10/17 01:02:25;;;;;;;10.32;5.30;;;;;;;7.39;100.00;101908.28;5049308;28;20033;-52
2023/10/17 01:04:59;;;;;;;11.13;4.45;;;;;;;7.52;100.00;101936.19;5034768;28;20042;-51
2023/10/17 01:07:34;;;;;;;6.82;5.20;;;;;;;7.70;100.00;101951.00;5049345;28;20037;-47
2023/10/17 01:10:18;;;;;;;8.25;4.68;;;;;;;7.45;100.00;101899.50;5032782;28;20041;-51
2023/10/17 01:15:20;;;;;;;7.97;4.50;;;;;;;7.74;100.00;101960.56;5049201;28;20073;-48
2023/10/17 01:17:45;;;;;;;11.27;4.80;;;;;;;7.72;100.00;101952.72;5034268;28;20041;-50
2023/10/17 01:20:15;;;;;;;9.05;4.65;;;;;;;7.65;100.00;101929.16;5034191;28;20392;-48
2023/10/17 01:22:42;;;;;;;6.75;4.75;;;;;;;7.72;100.00;101949.22;5034290;28;20041;-51
2023/10/17 01:25:21;;;;;;;7.85;4.85;;;;;;;7.67;100.00;101930.03;5034468;28;20181;-51
2023/10/17 01:27:46;;;;;;;9.32;4.32;;;;;;;7.71;100.00;101934.38;5032731;28;20037;-52
2023/10/17 01:30:11;;;;;;;9.68;4.75;;;;;;;7.70;100.00;101932.66;5034148;28;20099;-56
2023/10/17 01:32:37;;;;;;;12.02;4.63;;;;;;;7.28;100.00;101853.31;5034217;28;20055;-49
2023/10/17 01:35:02;;;;;;;6.95;4.97;;;;;;;7.28;100.00;101858.53;5034041;28;20049;-47
2023/10/17 01:37:28;;;;;;;7.80;5.03;;;;;;;7.38;100.00;101869.88;5034314;28;20041;-53
2023/10/17 01:39:53;;;;;;;10.68;4.32;;;;;;;7.64;100.00;101916.94;5034253;28;20034;-49
2023/10/17 01:42:20;;;;;;;8.27;4.72;;;;;;;7.31;100.00;101866.41;5033902;28;20037;-50
2023/10/17 01:44:45;;;;;;;8.70;4.28;;;;;;;7.21;100.00;101871.63;5032328;28;20422;-50
2023/10/17 01:47:10;;;;;;;10.00;4.45;;;;;;;7.70;100.00;101930.91;5033706;28;20076;-51
2023/10/17 01:49:36;;;;;;;11.55;4.40;;;;;;;7.29;100.00;101857.69;5033514;28;20037;-53
2023/10/17 01:52:01;;;;;;;7.20;4.43;;;;;;;7.68;100.00;101923.91;5033505;28;20034;-50
2023/10/17 01:54:29;;;;;;;5.53;4.05;;;;;;;7.57;100.00;101902.97;5033839;28;20455;-49
2023/10/17 01:57:04;;;;;;;5.00;4.03;;;;;;;7.68;100.00;101922.16;5033836;28;20094;-48
2023/10/17 01:59:29;;;;;;;5.22;4.18;;;;;;;7.68;100.00;101929.13;5033662;28;20033;-47
2023/10/17 02:01:59;;;;;;;6.18;4.47;;;;;;;7.62;100.00;101916.06;5031565;28;20033;-52
2023/10/17 02:04:25;;;;;;;6.43;4.18;;;;;;;7.06;100.00;101812.34;5033685;28;20041;-47
2023/10/17 02:06:50;;;;;;;9.60;4.32;;;;;;;7.17;100.00;101842.00;5033582;28;20045;-51
2023/10/17 02:12:00;;;;;;;7.50;4.53;;;;;;;7.24;100.00;101851.56;5047520;28;20038;-48
2023/10/17 02:14:25;;;;;;;5.28;3.55;;;;;;;7.60;100.00;101909.97;5033345;28;20500;-53
2023/10/17 02:16:51;;;;;;;5.00;3.85;;;;;;;7.58;100.00;101906.47;5033374;28;20029;-54
2023/10/17 02:19:19;;;;;;;5.03;3.60;;;;;;;7.57;100.00;101920.44;5031445;28;20041;-49
2023/10/17 02:21:49;;;;;;;9.68;4.05;;;;;;;7.55;100.00;101909.09;5033300;28;20037;-50
2023/10/17 02:24:19;;;;;;;8.43;3.90;;;;;;;7.08;100.00;101822.81;5048154;28;20038;-53
2023/10/17 02:26:54;;;;;;;7.47;3.75;;;;;;;7.61;100.00;101915.22;5047851;28;20056;-52
2023/10/17 02:29:23;;;;;;;6.97;3.90;;;;;;;7.19;100.00;101840.22;5033026;28;20033;-47
2023/10/17 02:31:52;;;;;;;9.90;4.00;;;;;;;7.62;100.00;101911.69;5033178;28;20127;-53
2023/10/17 02:34:22;;;;;;;6.85;3.40;;;;;;;7.60;100.00;101908.22;5031288;28;20115;-50
2023/10/17 02:36:47;;;;;;;8.27;3.60;;;;;;;7.59;100.00;101910.84;5033017;28;20088;-46
2023/10/17 02:39:13;;;;;;;5.00;3.35;;;;;;;7.25;100.00;101848.06;5031487;28;20037;-47
2023/10/17 02:41:38;;;;;;;6.65;4.30;;;;;;;7.39;100.00;101879.47;5048225;28;20061;-53
2023/10/17 02:44:03;;;;;;;6.88;3.75;;;;;;;7.55;100.00;101901.25;5032527;28;20069;-49
2023/10/17 02:46:29;;;;;;;9.07;3.90;;;;;;;7.49;100.00;101898.66;5032647;28;20120;-51
2023/10/17 02:48:57;;;;;;;7.13;3.97;;;;;;;7.10;100.00;101828.91;5032174;28;20083;-49
2023/10/17 02:53:55;;;;;;;8.63;3.72;;;;;;;7.55;100.00;101912.59;5032669;28;20076;-54
2023/10/17 02:56:21;;;;;;;7.38;3.33;;;;;;;7.58;100.00;101914.34;5047714;28;20536;-53
2023/10/17 02:58:59;;;;;;;4.78;3.50;;;;;;;7.45;100.00;101899.50;5032421;28;20064;-50
2023/10/17 03:01:26;;;;;;;7.13;3.50;;;;;;;7.50;100.00;101914.34;5032387;28;20029;-51
2023/10/17 03:03:52;;;;;;;5.55;3.90;;;;;;;7.40;100.00;101904.78;5047031;28;20038;-55
2023/10/17 03:06:20;;;;;;;10.20;3.60;;;;;;;7.23;100.00;101868.16;5029381;28;20045;-52
2023/10/17 03:08:52;;;;;;;6.63;3.85;;;;;;;7.36;100.00;101882.06;5032323;28;20036;-52
2023/10/17 03:11:26;;;;;;;7.10;3.72;;;;;;;7.50;100.00;101900.41;5031156;28;20029;-47
2023/10/17 03:13:52;;;;;;;5.47;3.78;;;;;;;7.13;100.00;101844.59;5031309;28;20113;-50
2023/10/17 03:16:25;;;;;;;7.13;3.78;;;;;;;7.34;100.00;101889.97;5031214;28;20433;-49
2023/10/17 03:18:51;;;;;;;8.02;3.72;;;;;;;7.40;100.00;101914.38;5031085;28;20042;-52
2023/10/17 03:21:19;;;;;;;8.00;4.20;;;;;;;7.48;100.00;101912.59;5031261;28;20033;-53
2023/10/17 03:23:49;;;;;;;6.85;3.40;;;;;;;7.47;100.00;101918.75;5032075;28;20040;-50
2023/10/17 03:26:17;;;;;;;6.47;4.03;;;;;;;7.47;100.00;101921.38;5032438;28;20087;-51
2023/10/17 03:28:42;;;;;;;5.82;4.07;;;;;;;7.46;100.00;101914.38;5032209;28;20040;-48
2023/10/17 03:31:10;;;;;;;6.95;3.80;;;;;;;7.02;100.00;101849.00;5032055;28;20037;-49
2023/10/17 03:33:40;;;;;;;4.82;3.58;;;;;;;7.43;100.00;101915.25;5031806;28;20045;-52
2023/10/17 03:36:23;;;;;;;7.15;3.65;;;;;;;7.44;100.00;101918.75;5031059;28;20504;-47
2023/10/17 03:38:52;;;;;;;9.38;4.65;;;;;;;7.01;100.00;101839.38;5030266;28;20106;-51
2023/10/17 03:41:18;;;;;;;7.80;4.28;;;;;;;7.44;100.00;101926.63;5032101;28;20034;-51
2023/10/17 03:43:52;;;;;;;6.07;3.47;;;;;;;7.40;100.00;101925.75;5032056;28;20034;-49
2023/10/17 03:46:25;;;;;;;7.85;3.67;;;;;;;7.18;100.00;101884.78;5031836;28;20076;-48
2023/10/17 03:48:57;;;;;;;5.97;3.53;;;;;;;7.40;100.00;101922.25;5032032;28;20507;-50
2023/10/17 03:51:24;;;;;;;8.57;3.97;;;;;;;7.22;100.00;101908.31;5031722;28;20038;-51
2023/10/17 03:53:53;;;;;;;8.13;4.10;;;;;;;7.23;100.00;101909.19;5030742;28;20082;-50
2023/10/17 03:56:35;;;;;;;9.43;4.97;;;;;;;7.03;100.00;101869.06;5030241;28;20369;-51
2023/10/17 04:01:39;;;;;;;7.75;4.22;;;;;;;7.43;100.00;101943.19;5031740;28;20085;-52
2023/10/17 04:04:05;;;;;;;7.82;4.25;;;;;;;7.43;100.00;101938.84;5031947;28;20066;-50
2023/10/17 04:06:34;;;;;;;10.07;4.03;;;;;;;7.42;100.00;101937.06;5031712;28;20157;-52
2023/10/17 04:12:09;;;;;;;8.57;4.40;;;;;;;7.31;100.00;101931.00;5009704;28;20433;-50
2023/10/17 04:14:34;;;;;;;8.45;3.90;;;;;;;6.86;100.00;101845.53;5026171;28;20050;-53
2023/10/17 04:17:02;;;;;;;7.45;3.78;;;;;;;7.42;100.00;101933.56;5034824;28;20029;-53
2023/10/17 04:19:30;;;;;;;6.95;3.90;;;;;;;7.42;100.00;101936.19;5035372;28;20033;-53
2023/10/17 04:24:27;;;;;;;9.38;3.58;;;;;;;7.06;100.00;101859.47;5035364;28;20040;-53
2023/10/17 04:27:06;;;;;;;6.80;3.67;;;;;;;7.08;100.00;101849.88;5035541;28;20040;-53
2023/10/17 04:29:33;;;;;;;8.18;3.50;;;;;;;7.35;100.00;101889.06;5033399;28;20433;-50
2023/10/17 04:32:01;;;;;;;9.95;3.67;;;;;;;7.36;100.00;101895.19;5050379;28;20401;-50
2023/10/17 04:34:27;;;;;;;6.28;3.63;;;;;;;7.54;100.00;101931.81;5035495;28;20045;-52
2023/10/17 04:36:53;;;;;;;8.00;3.67;;;;;;;7.01;100.00;101832.41;5035251;28;20409;-49
2023/10/17 04:39:19;;;;;;;9.38;4.15;;;;;;;7.55;100.00;101930.94;5035269;28;20369;-50
2023/10/17 04:44:25;;;;;;;6.10;3.75;;;;;;;7.49;100.00;101916.97;5033836;28;20444;-54
2023/10/17 04:47:06;;;;;;;7.53;4.40;;;;;;;7.36;100.00;101890.81;4994593;28;20123;-55
2023/10/17 04:49:32;;;;;;;7.30;3.83;;;;;;;7.40;100.00;101903.91;4995860;28;20088;-51
2023/10/17 04:57:00;;;;;;;8.70;4.22;;;;;;;7.46;100.00;101924.84;4995388;28;20096;-47
2023/10/17 05:00:10;;;;;;;8.95;4.43;;;;;;;6.99;100.00;101849.00;4995567;28;20041;-53
2023/10/17 06:18:58;;;;;;;8.85;5.05;;;;;;;6.11;100.00;101836.81;5008865;28;20061;-50
2023/10/17 06:21:38;;;;;;;7.57;4.40;;;;;;;6.04;100.00;101826.34;5008218;28;20048;-51
2023/10/17 06:24:18;;;;;;;8.50;5.15;;;;;;;5.96;100.00;101825.44;5019363;28;20026;-48
2023/10/17 06:26:59;;;;;;;11.10;5.57;;;;;;;6.39;100.00;101876.06;5013055;28;20116;-51
2023/10/17 06:34:23;;;;;;;7.97;5.70;;;;;;;6.07;100.00;101829.81;5024378;28;20477;-51
2023/10/17 06:36:50;;;;;;;7.93;5.25;;;;;;;5.96;100.00;101828.94;5008538;28;20045;-48
2023/10/17 06:41:44;;;;;;;9.30;5.28;;;;;;;6.35;100.00;101906.56;5021798;28;20128;-49
2023/10/17 06:44:10;;;;;;;8.65;5.50;;;;;;;6.35;100.00;101909.19;5019964;28;20129;-53
2023/10/17 06:46:48;;;;;;;5.68;4.65;;;;;;;5.93;100.00;101848.94;5012726;28;20046;-50
2023/10/17 06:52:18;;;;;;;9.52;5.90;;;;;;;6.21;100.00;101885.63;5011820;28;20065;-51
2023/10/17 06:54:52;;;;;;;7.55;5.38;;;;;;;5.98;100.00;101848.09;5025298;28;20436;-52
2023/10/17 06:57:23;;;;;;;9.65;6.22;;;;;;;6.00;100.00;101845.50;5009630;28;20034;-52
2023/10/17 06:59:52;;;;;;;10.27;6.13;;;;;;;6.41;100.00;101914.44;5013177;28;20110;-52
2023/10/17 07:02:28;;;;;;;7.18;4.95;;;;;;;6.10;100.00;101849.88;5024805;28;20370;-50
2023/10/17 07:05:00;;;;;;;8.98;5.20;;;;;;;6.43;100.00;101885.66;5033417;28;20069;-53
2023/10/17 07:07:40;;;;;;;7.65;5.20;;;;;;;6.57;100.00;101899.59;5012478;28;20144;-49
2023/10/17 07:10:36;;;;;;;13.97;5.60;;;;;;;6.20;100.00;101828.97;5008069;28;20070;-48
2023/10/17 07:13:39;;;;;;;7.38;4.68;;;;;;;6.74;100.00;101901.34;5002672;28;20117;-51
2023/10/17 07:16:11;;;;;;;9.20;5.25;;;;;;;6.34;100.00;101831.59;5010633;28;20033;-53
2023/10/17 07:18:44;;;;;;;7.53;5.35;;;;;;;6.26;100.00;101828.09;5026508;28;20034;-51
2023/10/17 07:23:48;;;;;;;12.77;5.65;;;;;;;6.78;100.00;101890.03;5012583;28;20113;-53
2023/10/17 07:28:55;;;;;;;7.55;4.53;;;;;;;6.55;100.00;101826.38;5009363;28;20041;-51
2023/10/17 07:31:23;;;;;;;8.18;4.40;;;;;;;6.96;100.00;101893.50;5020261;28;20068;-53
2023/10/17 07:36:34;;;;;;;8.25;4.20;;;;;;;7.09;100.00;101900.50;5012482;28;20415;-57
2023/10/17 07:39:07;;;;;;;6.32;4.68;;;;;;;7.10;100.00;101908.31;5009212;28;20125;-49
2023/10/17 07:41:39;;;;;;;7.20;4.75;;;;;;;6.99;100.00;101869.94;5024407;28;20048;-52
2023/10/17 07:44:41;;;;;;;10.68;4.80;;;;;;;7.08;100.00;101886.53;5011656;28;20038;-50
2023/10/17 07:47:19;;;;;;;5.60;4.80;;;;;;;6.82;100.00;101830.72;5010588;28;20078;-49
2023/10/17 07:49:47;;;;;;;7.20;4.47;;;;;;;6.99;100.00;101869.94;5010511;28;20481;-46
2023/10/17 07:52:15;;;;;;;8.45;4.38;;;;;;;7.20;100.00;101907.44;5016122;28;20034;-50
2023/10/17 07:54:55;;;;;;;7.40;5.32;;;;;;;7.27;100.00;101885.59;5016422;28;20504;-52
2023/10/17 07:57:36;;;;;;;11.48;5.88;;;;;;;7.29;100.00;101875.13;5014195;28;20030;-50
2023/10/17 08:00:24;;;;;;;8.93;5.88;;;;;;;7.10;100.00;101827.16;5014303;28;20041;-53
2023/10/17 08:02:51;;;;;;;8.38;6.13;;;;;;;7.51;100.00;101889.03;5014266;28;20051;-51
2023/10/17 08:05:23;;;;;;;7.30;6.07;;;;;;;7.59;100.00;101893.34;5021143;28;20045;-48
2023/10/17 08:07:49;;;;;;;;;;;;;;;7.69;100.00;101894.22;5013569;28;20538;-51
2023/10/17 08:10:29;;;;;;;10.70;7.65;;;;;;;7.76;100.00;101895.94;5046480;28;19975;-50
2023/10/17 08:12:57;;;;;;;10.65;7.47;;;;;;;7.69;100.00;101870.63;5014455;28;20050;-54
2023/10/17 08:15:30;;;;;;;12.55;8.40;;;;;;;7.56;100.00;101832.25;5027340;28;20034;-53
2023/10/17 08:17:58;;;;;;;11.55;8.50;;;;;;;7.93;100.00;101883.63;5009893;28;20042;-50
2023/10/17 08:20:45;;;;;;;14.65;8.13;;;;;;;7.98;100.00;101881.84;4994999;28;20092;-50
2023/10/17 08:23:11;;;;;;;9.93;8.18;;;;;;;8.13;100.00;101892.25;5007844;28;20042;-52
2023/10/17 08:25:52;;;;;;;12.05;7.85;;;;;;;7.72;100.00;101826.06;4995800;28;20035;-50
2023/10/17 08:28:33;;;;;;;13.68;9.68;;;;;;;7.77;100.00;101822.53;4995060;28;20097;-48
2023/10/17 08:31:17;;;;;;;10.80;9.17;;;;;;;8.26;100.00;101914.88;5008804;28;20092;-51
2023/10/17 08:33:44;;;;;;;15.90;10.60;;;;;;;8.41;100.00;101896.47;4994571;28;20088;-49
2023/10/17 08:36:10;;;;;;;15.15;10.32;;;;;;;8.07;100.00;101829.34;4996262;28;20042;-52
2023/10/17 08:38:39;;;;;;;13.82;9.35;;;;;;;8.53;100.00;101894.63;4994480;28;20030;-54
2023/10/17 08:41:06;;;;;;;12.68;8.70;;;;;;;8.70;100.00;101909.38;4995727;28;20553;-52
2023/10/17 08:43:32;;;;;;;16.50;10.23;;;;;;;8.77;100.00;101918.97;5010712;28;20042;-50
2023/10/17 08:45:58;;;;;;;14.05;9.38;;;;;;;8.87;100.00;101932.91;4995729;28;20125;-52
2023/10/17 08:48:24;;;;;;;15.95;10.57;;;;;;;8.92;100.00;101937.22;4994196;28;20042;-50
2023/10/17 08:50:54;;;;;;;15.65;11.18;;;;;;;8.71;100.00;101858.63;4995784;28;20171;-47
2023/10/17 08:53:21;;;;;;;17.38;12.93;;;;;;;8.85;100.00;101859.38;4995883;28;20037;-52
2023/10/17 08:55:50;;;;;;;15.65;11.93;;;;;;;9.26;100.00;101914.13;4994403;28;20035;-49
2023/10/17 08:58:17;;;;;;;14.43;11.52;;;;;;;9.58;100.00;101893.63;4994469;28;20047;-50
2023/10/17 09:03:29;;;;;;;16.58;11.88;;;;;;;10.00;100.00;101910.66;5009246;28;20057;-50
2023/10/17 09:05:58;;;;;;;20.45;11.77;;;;;;;9.72;100.00;101868.97;4994375;28;20393;-49
2023/10/17 09:08:44;;;;;;;15.20;11.90;;;;;;;10.21;100.00;101940.22;4995310;28;20045;-53
2023/10/17 09:11:14;;;;;;;16.05;11.20;;;;;;;10.35;100.00;101939.16;4995300;28;20043;-56
2023/10/17 09:14:11;;;;;;;14.70;11.07;;;;;;;10.66;100.00;101937.81;4995491;28;20034;-51
2023/10/17 09:16:34;;;;;;;15.73;10.70;;;;;;;10.57;100.00;101879.16;4994112;28;20394;-48
2023/10/17 09:19:09;;;;;;;14.48;10.90;;;;;;;10.95;100.00;101931.19;4994849;28;20050;-52
2023/10/17 09:21:35;;;;;;;14.73;10.80;;;;;;;10.48;100.00;101876.66;4993676;28;20030;-47
2023/10/17 09:24:00;;;;;;;14.30;9.73;;;;;;;10.90;100.00;101939.19;4995083;28;20446;-51
2023/10/17 09:26:25;;;;;;;14.60;9.40;;;;;;;10.95;100.00;101937.34;4994494;28;20073;-49
2023/10/17 09:29:00;;;;;;;13.10;10.00;;;;;;;10.94;100.00;101930.34;5009654;28;20089;-49
2023/10/17 09:31:26;;;;;;;15.18;10.02;;;;;;;10.68;100.00;101901.78;4993554;28;20035;-46
2023/10/17 09:33:53;;;;;;;15.32;9.63;;;;;;;10.75;100.00;101894.66;4994740;28;20050;-47
2023/10/17 09:36:19;;;;;;;13.50;8.82;;;;;;;10.89;100.00;101936.56;4994750;28;20038;-47
2023/10/17 09:38:46;;;;;;;15.10;8.07;;;;;;;10.51;100.00;101884.50;4994851;28;20112;-47
2023/10/17 09:41:17;;;;;;;9.65;7.47;;;;;;;10.47;100.00;101886.34;5009969;28;20121;-51
2023/10/17 09:43:42;;;;;;;;;;;;;;;10.83;100.00;101949.84;5009633;28;20491;-49
2023/10/17 09:46:14;;;;;;;8.50;7.63;;;;;;;10.80;100.00;101942.00;5009732;28;20000;-46
2023/10/17 09:48:41;;;;;;;10.48;7.80;;;;;;;10.66;100.00;101910.59;4994734;28;20126;-49
2023/10/17 09:51:10;;;;;;;9.77;6.78;;;;;;;10.79;100.00;101933.22;4994485;28;20034;-54
2023/10/17 09:53:37;;;;;;;9.00;7.60;;;;;;;10.39;100.00;101858.41;4993278;28;20121;-50
2023/10/17 09:56:15;;;;;;;9.20;7.13;;;;;;;10.88;100.00;101924.31;4993331;28;20038;-52
2023/10/17 09:58:51;;;;;;;7.80;7.00;;;;;;;11.00;100.00;101929.38;5009343;28;20034;-50
2023/10/17 10:01:24;;;;;;;12.07;7.60;;;;;;;10.78;100.00;101891.09;5009257;28;20040;-51
2023/10/17 10:03:56;;;;;;;10.68;6.45;;;;;;;10.74;100.00;101866.56;5009453;28;20093;-47
2023/10/17 10:06:25;;;;;;;9.50;6.85;;;;;;;10.89;100.00;101868.06;4994023;28;20062;-48
2023/10/17 10:08:55;;;;;;;8.23;6.50;;;;;;;11.23;100.00;101908.75;4994103;28;20089;-49
2023/10/17 10:11:20;;;;;;;9.90;6.70;;;;;;;10.69;100.00;101806.09;4992883;28;20032;-53
2023/10/17 10:14:08;;;;;;;9.45;6.50;;;;;;;11.38;100.00;101905.84;5008844;28;20061;-51
2023/10/17 10:17:02;;;;;;;7.25;5.45;;;;;;;11.15;100.00;101873.75;4994115;28;20041;-52
2023/10/17 10:19:40;;;;;;;8.38;5.63;;;;;;;11.49;100.00;101924.09;5008370;28;20549;-54
2023/10/17 10:22:06;;;;;;;7.70;4.82;;;;;;;11.10;100.00;101854.53;4993887;28;20041;-48
2023/10/17 10:24:34;;;;;;;9.30;5.18;;;;;;;11.36;100.00;101899.72;4994064;28;20034;-52
2023/10/17 10:27:08;;;;;;;9.50;5.13;;;;;;;11.58;100.00;101916.00;4994040;28;20030;-48
2023/10/17 10:29:34;;;;;;;8.60;4.90;;;;;;;11.22;100.00;101863.09;4994005;28;20034;-49
2023/10/17 10:32:05;;;;;;;6.70;4.38;;;;;;;11.52;100.00;101884.47;4993644;28;20059;-50
2023/10/17 10:34:35;;;;;;;6.88;4.43;;;;;;;12.16;100.00;101915.72;5008080;28;20034;-47
2023/10/17 10:37:01;;;;;;;5.78;4.18;;;;;;;12.66;100.00;101941.84;5008257;28;20034;-48
2023/10/17 10:39:26;;;;;;;4.30;3.75;;;;;;;12.80;100.00;101944.16;4993763;28;20031;-49
2023/10/17 10:41:59;;;;;;;7.25;4.15;;;;;;;12.74;100.00;101931.09;4993733;28;20445;-48
2023/10/17 10:44:25;;;;;;;3.70;3.33;;;;;;;13.06;100.00;101925.00;4993507;28;20038;-50
2023/10/17 10:46:52;;;;;;;6.20;3.60;;;;;;;13.30;100.00;101875.03;4993441;28;20043;-49
2023/10/17 10:49:27;;;;;;;4.28;3.20;;;;;;;14.15;100.00;101861.97;4993285;28;20042;-51
2023/10/17 10:51:53;;;;;;;5.05;2.92;;;;;;;14.60;100.00;101921.47;4993418;28;20040;-48
2023/10/17 10:54:18;;;;;;;3.80;2.83;;;;;;;14.14;100.00;101860.22;4992329;28;20041;-51
2023/10/17 10:56:51;;;;;;;4.82;2.90;;;;;;;13.71;100.00;101865.94;5008403;28;20034;-47
2023/10/17 10:59:21;;;;;;;5.50;2.92;;;;;;;14.09;100.00;101921.28;4993205;28;20072;-46
2023/10/17 11:01:50;;;;;;;4.00;2.60;;;;;;;14.68;100.00;101831.13;4993166;28;20065;-48
2023/10/17 11:04:16;;;;;;;6.55;2.67;;;;;;;15.88;100.00;101851.53;5008435;28;20049;-47
2023/10/17 11:06:41;;;;;;;5.57;2.95;;;;;;;16.66;100.00;101907.81;5008659;28;20046;-50
2023/10/17 11:09:09;;;;;;;3.95;2.60;;;;;;;17.32;100.00;101946.69;4991805;28;20405;-50
2023/10/17 11:11:50;;;;;;;4.97;2.55;;;;;;;16.66;100.00;101915.81;4993081;28;20037;-52
2023/10/17 11:14:19;;;;;;;2.87;2.63;;;;;;;16.62;100.00;101925.69;4993352;28;20042;-48
2023/10/17 11:16:50;;;;;;;4.88;2.50;;;;;;;16.56;100.00;101938.34;4991933;28;20386;-48
2023/10/17 11:19:22;;;;;;;3.60;2.13;;;;;;;16.93;100.00;101925.28;4991913;28;20499;-49
2023/10/17 11:21:52;;;;;;;2.97;2.38;;;;;;;17.04;100.00;101853.03;4993069;28;20030;-48
2023/10/17 11:24:18;;;;;;;5.37;2.70;;;;;;;17.57;100.00;101864.03;4993101;28;20042;-48
2023/10/17 11:26:44;;;;;;;3.85;2.55;;;;;;;18.53;100.00;101882.56;5007406;28;20037;-47
2023/10/17 11:29:10;;;;;;;3.85;2.13;;;;;;;18.73;100.00;101857.56;4991944;28;20030;-52
2023/10/17 11:31:35;;;;;;;4.47;2.50;;;;;;;19.24;100.00;101876.25;4991619;28;20061;-49
2023/10/17 11:34:04;;;;;;;4.40;2.28;;;;;;;19.53;100.00;101890.75;5007813;28;20077;-50
2023/10/17 11:36:36;;;;;;;4.93;2.30;;;;;;;19.39;100.00;101875.47;4992847;28;20061;-50
2023/10/17 11:39:05;;;;;;;4.60;2.40;;;;;;;19.51;100.00;101885.50;4992610;28;20030;-50
2023/10/17 11:41:39;;;;;;;5.70;2.92;;;;;;;19.55;100.00;101903.13;4991537;28;20038;-51
2023/10/17 11:44:05;;;;;;;5.90;2.50;;;;;;;19.28;100.00;101843.13;4992868;28;20118;-48
2023/10/17 11:46:31;;;;;;;3.85;2.35;;;;;;;19.66;100.00;101846.44;5007785;28;20413;-50
2023/10/17 11:49:26;;;;;;;3.20;2.58;;;;;;;20.20;100.00;101830.00;4992602;28;20038;-48
2023/10/17 11:52:12;;;;;;;3.67;2.22;;;;;;;20.27;100.00;101870.66;5006437;28;20199;-51
2023/10/17 11:54:53;;;;;;;3.38;1.80;;;;;;;19.38;100.00;101886.22;4992174;28;20173;-48
2023/10/17 11:57:24;;;;;;;3.15;1.77;;;;;;;18.58;100.00;101808.53;4992574;28;20018;-48
2023/10/17 11:59:53;;;;;;;;;;;;;;;19.00;100.00;101874.84;4992822;28;20512;-52
2023/10/17 12:02:18;;;;;;;2.65;2.35;;;;;;;18.82;100.00;101873.97;4992226;28;20361;-49
2023/10/17 12:04:43;;;;;;;4.85;2.35;;;;;;;17.65;100.00;101868.06;4992374;28;20041;-51
2023/10/17 12:07:08;;;;;;;3.65;2.75;;;;;;;16.92;100.00;101854.44;4991370;28;20042;-50
2023/10/17 12:09:34;;;;;;;3.42;2.38;;;;;;;17.21;100.00;101842.53;4992569;28;20034;-50
2023/10/17 12:12:02;;;;;;;6.47;2.95;;;;;;;17.77;100.00;101840.88;4992354;28;20035;-49
2023/10/17 12:14:28;;;;;;;3.58;2.30;;;;;;;17.60;100.00;101784.00;4992295;28;20042;-48
2023/10/17 12:16:54;;;;;;;3.60;2.30;;;;;;;17.90;100.00;101850.00;4991450;28;20049;-49
2023/10/17 12:19:20;;;;;;;3.92;3.05;;;;;;;17.18;100.00;101821.38;5007363;28;20232;-48
2023/10/17 12:21:49;;;;;;;6.00;3.13;;;;;;;16.74;100.00;101818.84;4992373;28;20030;-49
2023/10/17 12:24:27;;;;;;;5.32;3.25;;;;;;;16.18;100.00;101757.38;4991253;28;20049;-49
2023/10/17 12:26:53;;;;;;;4.63;3.08;;;;;;;16.45;100.00;101797.91;4992879;28;20034;-49
2023/10/17 12:29:19;;;;;;;5.78;3.53;;;;;;;16.69;100.00;101756.16;5007260;28;20089;-48
2023/10/17 12:31:45;;;;;;;3.88;2.90;;;;;;;16.87;100.00;101790.78;4991871;28;20034;-50
2023/10/17 12:34:10;;;;;;;3.13;2.83;;;;;;;16.18;100.00;101727.28;4991224;28;20035;-48
2023/10/17 12:36:36;;;;;;;6.28;3.38;;;;;;;15.92;100.00;101749.63;4992971;28;20136;-50
2023/10/17 12:39:03;;;;;;;4.30;2.67;;;;;;;15.43;100.00;101734.72;4995894;28;20503;-48
2023/10/17 12:41:30;;;;;;;3.50;2.95;;;;;;;15.27;100.00;101793.69;4995881;28;20077;-51
2023/10/17 12:43:55;;;;;;;4.15;2.40;;;;;;;14.87;100.00;101771.25;4995726;28;20022;-49
2023/10/17 12:46:20;;;;;;;4.03;3.05;;;;;;;14.22;100.00;101709.91;4995904;28;20057;-50
2023/10/17 12:48:46;;;;;;;3.38;3.08;;;;;;;14.22;100.00;101769.94;5010754;28;20078;-53
2023/10/17 12:51:12;;;;;;;2.83;2.55;;;;;;;13.93;100.00;101762.94;4995818;28;20034;-50
2023/10/17 12:53:38;;;;;;;3.67;2.30;;;;;;;13.71;100.00;101765.41;4994437;28;20104;-50
2023/10/17 12:56:05;;;;;;;2.92;2.53;;;;;;;13.57;100.00;101735.88;4995518;28;20448;-47
2023/10/17 12:58:36;;;;;;;2.30;2.03;;;;;;;13.13;100.00;101704.56;5010366;28;20042;-49
2023/10/17 13:01:03;;;;;;;3.22;2.20;;;;;;;13.25;100.00;101696.28;4995608;28;20042;-50
2023/10/17 13:03:30;;;;;;;4.80;2.63;;;;;;;13.21;100.00;101684.06;4995429;28;20035;-53
2023/10/17 13:05:55;;;;;;;5.05;3.25;;;;;;;13.15;100.00;101671.03;4995433;28;20046;-49
2023/10/17 13:08:21;;;;;;;4.63;2.80;;;;;;;13.64;100.00;101741.81;4995299;28;20046;-48
2023/10/17 13:10:50;;;;;;;5.93;3.10;;;;;;;13.36;100.00;101686.25;4995155;28;20428;-49
2023/10/17 13:13:15;;;;;;;5.95;3.08;;;;;;;13.66;100.00;101727.63;5010141;28;20162;-47
2023/10/17 13:15:43;;;;;;;5.63;3.30;;;;;;;13.47;100.00;101702.66;4995173;28;20469;-52
2023/10/17 13:18:10;;;;;;;3.40;2.80;;;;;;;13.25;100.00;101683.91;5010068;28;20038;-50
2023/10/17 13:20:36;;;;;;;3.55;2.40;;;;;;;13.12;100.00;101674.63;4995013;28;20049;-48
2023/10/17 13:23:04;;;;;;;3.60;2.47;;;;;;;13.46;100.00;101730.00;4995193;28;20381;-50
2023/10/17 13:25:36;;;;;;;3.28;2.70;;;;;;;13.05;100.00;101649.25;4995171;28;20078;-47
2023/10/17 13:28:03;;;;;;;4.30;2.33;;;;;;;12.96;100.00;101634.53;5009950;28;20032;-49
2023/10/17 13:30:29;;;;;;;3.83;2.05;;;;;;;13.14;100.00;101675.44;4994989;28;20077;-53
2023/10/17 13:32:54;;;;;;;2.65;2.05;;;;;;;13.23;100.00;101724.53;4993643;28;20078;-48
2023/10/17 13:35:21;;;;;;;3.15;1.90;;;;;;;12.78;100.00;101674.69;4993624;28;20045;-50